Página principal
METAR-TAF:

METAR-TAF

Aeroportos :

Aeroporto Internacional do Recife

Recife, Pernambuco, Brasil

latitude: 08-08S, longitude: 034-55W, altura: 19 m

Observação actual do tempo

O boletim foi feito há 41 minutos, às 04:00 UTC
Vento 5 kt de su-sudoeste
Temperatura 25°C
Humidade 83%
Pressão 1014 hPa
Visibilidade 10 km ou mais
Nuvens dispersasa uma altura de 2500 ft

METAR: SBRF 230400Z 20005KT 9999 SCT025 25/22 Q1014

Hora: 01:41 (04:41 UTC)

Previsão

O boletim foi feito há 6 horas e 41 minutos, às 22:00 UTC
Previsão válida de 23 às 00 UTC a 23 às 24 UTC
Vento 8 kt de es-sudeste
Visibilidade 10 km ou mais
Nuvens dispersasa uma altura de 2200 ft

TAF: SBRF 222200Z 2300/2324 12008KT 9999 SCT022 TN26/2305Z TX30/2315Z RMK PEA

Observações e previsões do tempo de mais de 4000 aeroportos (mensagens METAR e TAF).

As estações disponíveis são os pontos amarelos e vermelhos sobre o mapa.

Mova o rato sobre o mapa para ver o nome da estação.

Depois clique no ponto para visualizar as observações e previsões meteorológicas.

Para alterar o mapa : clique nos botões verdes com uma cruz preta para aumentar o zoom; no botão verde com uma pitada de zoom; ou nas setas verdes para mapas adjacentes.


METAR-TAF: